Time;durP1;ratioP1;P1;durP2;ratioP2;P2;SDS_P1;SDS_P2;PMS_P1;PMS_P2;Temp;Humidity;BMP_temperature;BMP_pressure;BME280_temperature;BME280_humidity;BME280_pressure;Samples;Min_cycle;Max_cycle;Signal;HPM_P1;HPM_P2
2021/01/23 00:01:26;;;;;;;12.30;8.85;;;;;;;;;;6389371;22;20254;-49
2021/01/23 00:04:03;;;;;;;14.40;9.95;;;;;;;;;;6392870;22;20172;-55
2021/01/23 00:06:32;;;;;;;12.80;9.30;;;;;;;;;;6393186;22;20170;-53
2021/01/23 00:08:59;;;;;;;18.75;9.80;;;;;;;;;;6393190;22;20187;-51
2021/01/23 00:11:26;;;;;;;19.45;10.98;;;;;;;;;;6394142;22;20150;-49
2021/01/23 00:14:01;;;;;;;14.68;10.23;;;;;;;;;;6391447;22;20174;-50
2021/01/23 00:16:29;;;;;;;13.77;10.70;;;;;;;;;;6396253;22;20176;-50
2021/01/23 00:18:56;;;;;;;17.63;10.70;;;;;;;;;;6396000;22;20256;-45
2021/01/23 00:21:32;;;;;;;12.88;9.45;;;;;;;;;;6394856;22;20182;-56
2021/01/23 00:24:07;;;;;;;22.38;9.10;;;;;;;;;;6396153;22;20205;-50
2021/01/23 00:26:34;;;;;;;16.05;9.68;;;;;;;;;;6396712;22;20181;-52
2021/01/23 00:29:08;;;;;;;22.05;11.65;;;;;;;;;;6393952;22;20188;-51
2021/01/23 00:31:35;;;;;;;18.52;11.80;;;;;;;;;;6393975;22;20243;-56
2021/01/23 00:34:02;;;;;;;15.75;10.25;;;;;;;;;;6393254;22;20178;-49
2021/01/23 00:36:30;;;;;;;16.35;9.38;;;;;;;;;;6393490;22;20209;-53
2021/01/23 00:38:57;;;;;;;17.23;9.43;;;;;;;;;;6393583;22;20359;-53
2021/01/23 00:41:23;;;;;;;15.88;9.98;;;;;;;;;;6393731;22;20201;-54
2021/01/23 00:43:56;;;;;;;18.13;9.38;;;;;;;;;;6394128;22;20178;-48
2021/01/23 00:46:24;;;;;;;13.88;9.13;;;;;;;;;;6394196;22;20191;-55
2021/01/23 00:49:11;;;;;;;25.25;10.05;;;;;;;;;;6394255;22;20179;-52
2021/01/23 00:51:38;;;;;;;19.70;10.10;;;;;;;;;;6393361;22;20191;-48
2021/01/23 00:54:06;;;;;;;14.13;8.88;;;;;;;;;;6394414;22;20145;-51
2021/01/23 00:56:39;;;;;;;19.15;10.80;;;;;;;;;;6394745;22;20180;-54
2021/01/23 00:59:16;;;;;;;11.95;8.88;;;;;;;;;;6395787;22;20205;-55
2021/01/23 01:01:44;;;;;;;17.17;9.95;;;;;;;;;;6395250;22;20181;-44
2021/01/23 01:04:36;;;;;;;13.25;7.95;;;;;;;;;;6393871;22;20188;-47
2021/01/23 01:07:02;;;;;;;12.60;8.60;;;;;;;;;;6392581;22;20209;-49
2021/01/23 01:09:30;;;;;;;15.27;9.00;;;;;;;;;;6394070;22;20179;-51
2021/01/23 01:11:58;;;;;;;13.88;8.57;;;;;;;;;;6393360;22;20182;-53
2021/01/23 01:14:28;;;;;;;17.88;10.15;;;;;;;;;;6393074;22;20166;-54
2021/01/23 01:16:57;;;;;;;18.20;10.75;;;;;;;;;;6393914;22;20187;-52
2021/01/23 01:19:24;;;;;;;17.48;8.70;;;;;;;;;;6393666;22;20192;-49
2021/01/23 01:21:54;;;;;;;17.23;10.25;;;;;;;;;;6393334;22;20342;-53
2021/01/23 01:24:21;;;;;;;11.82;8.05;;;;;;;;;;6393418;22;20180;-52
2021/01/23 01:26:51;;;;;;;13.02;7.65;;;;;;;;;;6394304;22;20181;-49
2021/01/23 01:29:18;;;;;;;17.40;9.13;;;;;;;;;;6394003;22;20159;-54
2021/01/23 01:31:45;;;;;;;18.70;8.48;;;;;;;;;;6393482;22;20188;-49
2021/01/23 01:34:17;;;;;;;18.52;9.10;;;;;;;;;;6393032;22;20241;-53
2021/01/23 01:36:56;;;;;;;11.63;8.07;;;;;;;;;;6394358;22;20162;-55
2021/01/23 01:39:26;;;;;;;22.02;9.60;;;;;;;;;;6395002;22;20313;-49
2021/01/23 01:41:53;;;;;;;12.32;8.13;;;;;;;;;;6396201;22;20164;-55
2021/01/23 01:44:22;;;;;;;13.85;9.93;;;;;;;;;;6396403;22;20164;-52
2021/01/23 01:46:49;;;;;;;17.00;8.98;;;;;;;;;;6395273;22;20207;-49
2021/01/23 01:49:23;;;;;;;11.57;7.93;;;;;;;;;;6396750;22;20181;-56
2021/01/23 01:52:15;;;;;;;11.32;8.00;;;;;;;;;;6397291;22;20201;-50
2021/01/23 01:54:42;;;;;;;15.10;8.25;;;;;;;;;;6396185;22;20228;-50
2021/01/23 01:57:10;;;;;;;11.75;7.53;;;;;;;;;;6396613;22;20240;-50
2021/01/23 01:59:38;;;;;;;13.30;7.85;;;;;;;;;;6397073;22;20180;-53
2021/01/23 02:02:24;;;;;;;11.65;6.78;;;;;;;;;;6397838;22;20172;-52
2021/01/23 02:05:17;;;;;;;11.80;9.05;;;;;;;;;;6395257;22;20218;-50
2021/01/23 02:07:59;;;;;;;15.77;9.77;;;;;;;;;;6392862;22;20244;-56
2021/01/23 02:10:33;;;;;;;13.45;6.88;;;;;;;;;;6396789;22;20176;-54
2021/01/23 02:13:22;;;;;;;13.50;7.68;;;;;;;;;;6398836;22;20182;-48
2021/01/23 02:15:57;;;;;;;12.30;8.63;;;;;;;;;;6394835;22;20207;-49
2021/01/23 02:18:25;;;;;;;15.93;7.60;;;;;;;;;;6394966;22;20343;-54
2021/01/23 02:21:15;;;;;;;15.60;9.27;;;;;;;;;;6397588;22;20169;-49
2021/01/23 02:23:45;;;;;;;17.58;9.25;;;;;;;;;;6397376;22;20169;-53
2021/01/23 02:26:15;;;;;;;12.40;7.80;;;;;;;;;;6394749;22;20181;-53
2021/01/23 02:29:00;;;;;;;9.52;6.90;;;;;;;;;;6395669;22;20238;-48
2021/01/23 02:31:28;;;;;;;10.95;6.57;;;;;;;;;;6369579;22;20165;-48
2021/01/23 02:33:57;;;;;;;15.35;8.43;;;;;;;;;;6394801;22;20205;-51
2021/01/23 02:36:25;;;;;;;12.98;8.10;;;;;;;;;;6394119;22;20185;-53
2021/01/23 02:38:53;;;;;;;12.90;8.02;;;;;;;;;;6396027;22;20205;-48
2021/01/23 02:41:22;;;;;;;12.48;7.38;;;;;;;;;;6395107;22;20173;-56
2021/01/23 02:43:58;;;;;;;13.18;7.30;;;;;;;;;;6396165;22;20153;-52
2021/01/23 02:46:24;;;;;;;12.90;7.75;;;;;;;;;;6397200;22;20164;-50
2021/01/23 02:48:52;;;;;;;11.30;8.30;;;;;;;;;;6395049;22;20165;-52
2021/01/23 02:51:22;;;;;;;14.18;7.32;;;;;;;;;;6394343;22;20185;-51
2021/01/23 02:53:53;;;;;;;14.32;7.75;;;;;;;;;;6395786;22;20201;-51
2021/01/23 02:56:38;;;;;;;11.98;7.65;;;;;;;;;;6396762;22;20181;-51
2021/01/23 02:59:06;;;;;;;14.23;6.53;;;;;;;;;;6396796;22;20199;-49
2021/01/23 03:01:45;;;;;;;9.52;6.70;;;;;;;;;;6395783;22;20169;-51
2021/01/23 03:04:22;;;;;;;9.40;6.90;;;;;;;;;;6395868;22;20152;-50
2021/01/23 03:06:49;;;;;;;14.13;6.38;;;;;;;;;;6395931;22;20196;-50
2021/01/23 03:09:22;;;;;;;10.77;7.13;;;;;;;;;;6396344;22;20176;-54
2021/01/23 03:12:09;;;;;;;10.32;7.03;;;;;;;;;;6394969;22;20208;-49
2021/01/23 03:14:37;;;;;;;9.45;7.00;;;;;;;;;;6396612;22;20225;-51
2021/01/23 03:17:04;;;;;;;9.63;6.43;;;;;;;;;;6394500;22;20379;-56
2021/01/23 03:19:34;;;;;;;10.68;7.15;;;;;;;;;;6396454;22;20161;-51
2021/01/23 03:22:01;;;;;;;18.33;8.70;;;;;;;;;;6395651;22;20227;-52
2021/01/23 03:24:28;;;;;;;10.80;7.20;;;;;;;;;;6395680;22;20202;-50
2021/01/23 03:26:55;;;;;;;10.45;6.30;;;;;;;;;;6395277;22;20525;-48
2021/01/23 03:29:23;;;;;;;11.52;7.38;;;;;;;;;;6394795;22;20255;-55
2021/01/23 03:31:50;;;;;;;10.75;7.07;;;;;;;;;;6395340;22;20184;-54
2021/01/23 03:34:17;;;;;;;10.15;6.80;;;;;;;;;;6396086;22;20188;-58
2021/01/23 03:36:50;;;;;;;9.32;6.85;;;;;;;;;;6396240;22;20165;-49
2021/01/23 03:39:17;;;;;;;8.93;6.45;;;;;;;;;;6395430;22;20197;-54
2021/01/23 03:41:44;;;;;;;12.57;6.40;;;;;;;;;;6395789;22;20164;-52
2021/01/23 03:44:11;;;;;;;10.10;5.93;;;;;;;;;;6394475;22;20203;-52
2021/01/23 03:46:37;;;;;;;19.48;7.57;;;;;;;;;;6395289;22;20191;-50
2021/01/23 03:49:21;;;;;;;11.02;6.22;;;;;;;;;;6393559;22;20307;-53
2021/01/23 03:51:47;;;;;;;10.00;6.25;;;;;;;;;;6396059;22;20160;-53
2021/01/23 03:54:15;;;;;;;11.88;6.32;;;;;;;;;;6395359;22;20205;-56
2021/01/23 03:56:42;;;;;;;12.23;6.30;;;;;;;;;;6395701;22;20202;-50
2021/01/23 03:59:09;;;;;;;9.27;6.13;;;;;;;;;;6393287;22;20196;-54
2021/01/23 04:01:36;;;;;;;11.23;6.30;;;;;;;;;;6396190;22;20186;-55
2021/01/23 04:04:03;;;;;;;15.93;6.53;;;;;;;;;;6396667;22;20148;-54
2021/01/23 04:06:33;;;;;;;13.35;6.90;;;;;;;;;;6396006;22;20176;-47
2021/01/23 04:09:01;;;;;;;8.68;5.35;;;;;;;;;;6396009;22;20165;-50
2021/01/23 04:11:29;;;;;;;12.93;6.20;;;;;;;;;;6395643;22;20164;-47
2021/01/23 04:14:05;;;;;;;10.63;6.38;;;;;;;;;;6396059;22;20195;-50
2021/01/23 04:16:32;;;;;;;10.77;6.20;;;;;;;;;;6395613;22;20244;-50
2021/01/23 04:18:59;;;;;;;10.95;7.45;;;;;;;;;;6394459;22;20188;-57
2021/01/23 04:21:31;;;;;;;7.80;5.55;;;;;;;;;;6394473;22;20185;-46
2021/01/23 04:23:58;;;;;;;11.40;6.70;;;;;;;;;;6395680;22;20231;-47
2021/01/23 04:26:25;;;;;;;12.52;6.60;;;;;;;;;;6394958;22;20168;-47
2021/01/23 04:28:56;;;;;;;12.23;7.53;;;;;;;;;;6395090;22;20184;-51
2021/01/23 04:31:23;;;;;;;11.10;6.97;;;;;;;;;;6394244;22;20173;-51
2021/01/23 04:33:51;;;;;;;8.80;6.03;;;;;;;;;;6394433;22;20154;-53
2021/01/23 04:36:32;;;;;;;7.72;5.55;;;;;;;;;;6395266;22;20175;-48
2021/01/23 04:38:59;;;;;;;10.23;6.78;;;;;;;;;;6395150;22;20260;-55
2021/01/23 04:41:28;;;;;;;15.73;6.85;;;;;;;;;;6394789;22;20180;-51
2021/01/23 04:43:56;;;;;;;10.93;6.50;;;;;;;;;;6394593;22;20242;-53
2021/01/23 04:46:23;;;;;;;14.07;6.45;;;;;;;;;;6395058;22;20160;-47
2021/01/23 04:51:40;;;;;;;9.15;5.78;;;;;;;;;;6394962;22;20223;-46
2021/01/23 04:54:10;;;;;;;10.77;6.60;;;;;;;;;;6394694;22;20205;-47
2021/01/23 04:56:36;;;;;;;8.77;5.60;;;;;;;;;;6394895;22;20168;-48
2021/01/23 04:59:04;;;;;;;13.02;6.05;;;;;;;;;;6394408;22;20207;-55
2021/01/23 05:01:35;;;;;;;10.40;6.75;;;;;;;;;;6395104;22;20161;-54
2021/01/23 05:04:02;;;;;;;9.88;6.20;;;;;;;;;;6394763;22;20185;-48
2021/01/23 05:06:30;;;;;;;7.90;6.13;;;;;;;;;;6394833;22;20173;-53
2021/01/23 05:09:02;;;;;;;12.27;6.32;;;;;;;;;;6395326;22;20187;-55
2021/01/23 05:11:48;;;;;;;8.13;5.50;;;;;;;;;;6395326;22;20168;-48
2021/01/23 05:14:16;;;;;;;13.38;6.88;;;;;;;;;;6395728;22;20169;-51
2021/01/23 05:16:44;;;;;;;10.05;6.22;;;;;;;;;;6394847;22;20427;-54
2021/01/23 05:22:10;;;;;;;9.63;5.97;;;;;;;;;;6394979;22;20187;-53
2021/01/23 05:24:55;;;;;;;13.20;6.05;;;;;;;;;;6392862;22;20177;-49
2021/01/23 05:27:45;;;;;;;6.90;5.47;;;;;;;;;;6395615;22;20164;-48
2021/01/23 05:30:13;;;;;;;9.32;5.68;;;;;;;;;;6393602;22;20196;-47
2021/01/23 05:32:41;;;;;;;7.60;4.85;;;;;;;;;;6395295;22;20198;-55
2021/01/23 05:35:23;;;;;;;10.60;6.85;;;;;;;;;;6395360;22;20164;-47
2021/01/23 05:37:56;;;;;;;9.10;6.15;;;;;;;;;;6394682;22;20211;-55
2021/01/23 05:40:29;;;;;;;10.10;5.60;;;;;;;;;;6395738;22;20179;-51
2021/01/23 05:42:56;;;;;;;7.47;5.60;;;;;;;;;;6394980;22;20173;-57
2021/01/23 05:45:24;;;;;;;8.52;5.90;;;;;;;;;;6396084;22;20165;-53
2021/01/23 05:47:56;;;;;;;8.93;5.57;;;;;;;;;;6395404;22;20162;-52
2021/01/23 05:50:23;;;;;;;9.70;6.78;;;;;;;;;;6395061;22;20175;-53
2021/01/23 05:53:02;;;;;;;7.35;5.18;;;;;;;;;;6395519;22;20161;-51
2021/01/23 05:55:30;;;;;;;9.07;6.03;;;;;;;;;;6396046;22;20181;-53
2021/01/23 05:58:04;;;;;;;10.90;7.22;;;;;;;;;;6394831;22;20206;-56
2021/01/23 06:00:40;;;;;;;11.27;6.10;;;;;;;;;;6369877;22;20183;-57
2021/01/23 06:03:07;;;;;;;9.05;6.20;;;;;;;;;;6394508;22;20173;-55
2021/01/23 06:05:34;;;;;;;8.27;6.00;;;;;;;;;;6393687;22;20185;-50
2021/01/23 06:08:02;;;;;;;9.93;6.85;;;;;;;;;;6395442;22;20170;-55
2021/01/23 06:10:42;;;;;;;11.65;6.28;;;;;;;;;;6395516;22;20202;-46
2021/01/23 06:13:36;;;;;;;8.73;5.72;;;;;;;;;;6394789;22;20165;-51
2021/01/23 06:16:09;;;;;;;14.82;6.78;;;;;;;;;;6305029;22;20250;-55
2021/01/23 06:18:36;;;;;;;9.50;5.70;;;;;;;;;;6393750;22;20390;-49
2021/01/23 06:21:18;;;;;;;10.75;6.47;;;;;;;;;;6393436;22;20172;-52
2021/01/23 06:23:52;;;;;;;12.18;6.68;;;;;;;;;;6395210;22;20175;-53
2021/01/23 06:26:20;;;;;;;9.65;6.30;;;;;;;;;;6391795;22;20233;-46
2021/01/23 06:28:54;;;;;;;10.63;6.18;;;;;;;;;;6397734;22;20172;-52
2021/01/23 06:31:32;;;;;;;8.40;5.80;;;;;;;;;;6396554;22;20181;-47
2021/01/23 06:34:01;;;;;;;11.48;6.15;;;;;;;;;;6395867;22;20176;-51
2021/01/23 06:36:30;;;;;;;8.75;5.60;;;;;;;;;;6396316;22;20169;-51
2021/01/23 06:39:09;;;;;;;9.27;5.88;;;;;;;;;;6394619;22;20197;-47
2021/01/23 06:41:48;;;;;;;9.30;5.57;;;;;;;;;;6397269;22;20177;-53
2021/01/23 06:44:17;;;;;;;7.97;5.20;;;;;;;;;;6396637;22;20168;-48
2021/01/23 06:46:56;;;;;;;9.40;5.50;;;;;;;;;;6396870;22;20188;-56
2021/01/23 06:49:26;;;;;;;12.82;5.18;;;;;;;;;;6396405;22;20180;-47
2021/01/23 06:52:05;;;;;;;7.38;5.50;;;;;;;;;;6396618;22;20205;-48
2021/01/23 06:54:32;;;;;;;9.00;5.25;;;;;;;;;;6396638;22;20183;-54
2021/01/23 06:56:59;;;;;;;7.20;5.38;;;;;;;;;;6396348;22;20165;-56
2021/01/23 06:59:27;;;;;;;9.27;5.78;;;;;;;;;;6395958;22;20173;-56
2021/01/23 07:02:03;;;;;;;8.75;6.07;;;;;;;;;;6394681;22;20195;-56
2021/01/23 07:04:31;;;;;;;7.72;5.20;;;;;;;;;;6395959;22;20156;-51
2021/01/23 07:10:04;;;;;;;8.52;4.72;;;;;;;;;;6396854;22;20175;-51
2021/01/23 07:12:35;;;;;;;11.63;4.97;;;;;;;;;;6397226;22;20234;-56
2021/01/23 07:15:12;;;;;;;9.40;5.82;;;;;;;;;;6396586;22;20182;-53
2021/01/23 07:17:40;;;;;;;9.13;6.10;;;;;;;;;;6396601;22;20169;-52
2021/01/23 07:20:08;;;;;;;9.82;5.50;;;;;;;;;;6396592;22;20207;-50
2021/01/23 07:22:42;;;;;;;8.77;5.13;;;;;;;;;;6396219;22;20219;-56
2021/01/23 07:25:10;;;;;;;7.72;5.13;;;;;;;;;;6395178;22;20165;-47
2021/01/23 07:27:40;;;;;;;8.00;5.38;;;;;;;;;;6393520;22;20233;-51
2021/01/23 07:30:10;;;;;;;8.55;5.78;;;;;;;;;;6396573;22;20230;-52
2021/01/23 07:32:37;;;;;;;7.57;5.22;;;;;;;;;;6396363;22;20181;-49
2021/01/23 07:35:27;;;;;;;10.02;5.70;;;;;;;;;;6395956;22;20177;-53
2021/01/23 07:37:59;;;;;;;8.43;6.85;;;;;;;;;;6396046;22;20189;-51
2021/01/23 07:40:29;;;;;;;8.30;5.10;;;;;;;;;;6397175;22;20161;-50
2021/01/23 07:43:11;;;;;;;8.48;5.32;;;;;;;;;;6396734;22;20191;-55
2021/01/23 07:45:38;;;;;;;7.47;4.85;;;;;;;;;;6395577;22;20165;-53
2021/01/23 07:48:11;;;;;;;8.95;5.43;;;;;;;;;;6397706;22;20188;-51
2021/01/23 07:50:38;;;;;;;7.43;5.43;;;;;;;;;;6396863;22;20149;-51
2021/01/23 07:53:15;;;;;;;10.25;6.28;;;;;;;;;;6397049;22;20178;-52
2021/01/23 07:55:42;;;;;;;8.43;6.05;;;;;;;;;;6396942;22;20180;-56
2021/01/23 07:58:12;;;;;;;9.57;5.63;;;;;;;;;;6396362;22;20204;-54
2021/01/23 08:00:47;;;;;;;8.30;5.50;;;;;;;;;;6395208;22;20221;-54
2021/01/23 08:03:14;;;;;;;11.35;5.35;;;;;;;;;;6395440;22;20180;-50
2021/01/23 08:05:42;;;;;;;7.28;5.85;;;;;;;;;;6396601;22;20218;-54
2021/01/23 08:08:28;;;;;;;8.50;5.38;;;;;;;;;;6396043;22;20166;-54
2021/01/23 08:10:56;;;;;;;8.88;6.45;;;;;;;;;;6396013;22;20181;-53
2021/01/23 08:13:30;;;;;;;11.18;6.88;;;;;;;;;;6396173;22;20192;-52
2021/01/23 08:16:22;;;;;;;11.70;6.40;;;;;;;;;;6395996;22;20178;-50
2021/01/23 08:18:57;;;;;;;9.00;6.45;;;;;;;;;;6394965;22;20189;-54
2021/01/23 08:21:26;;;;;;;10.10;7.55;;;;;;;;;;6395371;22;20175;-56
2021/01/23 08:24:01;;;;;;;11.07;6.45;;;;;;;;;;6396201;22;20167;-49
2021/01/23 08:26:39;;;;;;;11.18;6.43;;;;;;;;;;6394477;22;20176;-48
2021/01/23 08:29:08;;;;;;;8.52;6.18;;;;;;;;;;6396255;22;20157;-55
2021/01/23 08:31:35;;;;;;;12.40;7.45;;;;;;;;;;6395117;22;20188;-55
2021/01/23 08:34:02;;;;;;;8.18;5.72;;;;;;;;;;6394064;22;20194;-51
2021/01/23 08:36:33;;;;;;;9.32;5.70;;;;;;;;;;6395672;22;20165;-52
2021/01/23 08:39:03;;;;;;;10.02;6.60;;;;;;;;;;6394158;22;20679;-50
2021/01/23 08:41:31;;;;;;;11.85;7.90;;;;;;;;;;6395694;22;20189;-56
2021/01/23 08:44:05;;;;;;;13.60;6.40;;;;;;;;;;6396229;22;20190;-46
2021/01/23 08:46:32;;;;;;;10.25;6.15;;;;;;;;;;6394575;22;20179;-56
2021/01/23 08:49:01;;;;;;;11.27;6.30;;;;;;;;;;6395746;22;20186;-55
2021/01/23 08:51:39;;;;;;;6.85;5.15;;;;;;;;;;6396210;22;20155;-58
2021/01/23 08:54:06;;;;;;;8.75;5.70;;;;;;;;;;6395077;22;20205;-56
2021/01/23 08:56:33;;;;;;;10.32;6.55;;;;;;;;;;6396335;22;20169;-50
2021/01/23 08:59:01;;;;;;;8.80;5.65;;;;;;;;;;6394664;22;20203;-56
2021/01/23 09:01:34;;;;;;;11.52;6.15;;;;;;;;;;6395879;22;20214;-56
2021/01/23 09:04:04;;;;;;;8.48;5.85;;;;;;;;;;6396547;22;20156;-48
2021/01/23 09:06:38;;;;;;;11.40;7.28;;;;;;;;;;6395316;22;20183;-50
2021/01/23 09:09:08;;;;;;;9.95;7.25;;;;;;;;;;6394987;22;20208;-54
2021/01/23 09:11:39;;;;;;;11.18;6.90;;;;;;;;;;6395276;22;20185;-56
2021/01/23 09:14:08;;;;;;;10.82;7.38;;;;;;;;;;6393277;22;20182;-59
2021/01/23 09:16:38;;;;;;;9.30;6.95;;;;;;;;;;6395975;22;20170;-57
2021/01/23 09:19:23;;;;;;;19.38;9.52;;;;;;;;;;6395964;22;20334;-52
2021/01/23 09:22:02;;;;;;;10.60;7.32;;;;;;;;;;6387833;22;20166;-52
2021/01/23 09:24:35;;;;;;;12.15;7.80;;;;;;;;;;6395751;22;20179;-57
2021/01/23 09:29:48;;;;;;;9.48;6.90;;;;;;;;;;6395624;22;20192;-56
2021/01/23 09:32:17;;;;;;;11.98;7.63;;;;;;;;;;6395873;22;20167;-50
2021/01/23 09:34:54;;;;;;;9.52;6.53;;;;;;;;;;6394983;22;20161;-53
2021/01/23 09:37:23;;;;;;;8.98;6.65;;;;;;;;;;6395000;22;20378;-52
2021/01/23 09:39:56;;;;;;;12.90;8.15;;;;;;;;;;6394350;22;20533;-54
2021/01/23 09:42:22;;;;;;;12.77;8.00;;;;;;;;;;6394428;22;20208;-53
2021/01/23 09:44:50;;;;;;;15.00;8.05;;;;;;;;;;6395447;22;20170;-52
2021/01/23 09:47:19;;;;;;;11.93;7.68;;;;;;;;;;6393998;22;20166;-48
2021/01/23 09:49:47;;;;;;;13.82;8.82;;;;;;;;;;6394075;22;20192;-59
2021/01/23 09:52:14;;;;;;;11.82;8.27;;;;;;;;;;6394705;22;20328;-54
2021/01/23 09:54:47;;;;;;;11.77;8.35;;;;;;;;;;6394125;22;20253;-45
2021/01/23 09:57:19;;;;;;;11.98;7.97;;;;;;;;;;6392496;22;20235;-56
2021/01/23 09:59:52;;;;;;;13.30;8.55;;;;;;;;;;6394632;22;20189;-49
2021/01/23 10:02:20;;;;;;;11.68;8.43;;;;;;;;;;6396056;22;20178;-55
2021/01/23 10:04:47;;;;;;;16.80;9.95;;;;;;;;;;6395561;22;20186;-49
2021/01/23 10:07:28;;;;;;;13.43;8.82;;;;;;;;;;6395815;22;20156;-53
2021/01/23 10:09:55;;;;;;;12.70;8.85;;;;;;;;;;6395754;22;20179;-54
2021/01/23 10:12:28;;;;;;;11.65;8.80;;;;;;;;;;6396495;22;20177;-52
2021/01/23 10:14:56;;;;;;;12.82;9.43;;;;;;;;;;6396350;22;20182;-53
2021/01/23 10:17:28;;;;;;;13.02;7.70;;;;;;;;;;6379239;22;20216;-54
2021/01/23 10:20:01;;;;;;;9.90;7.22;;;;;;;;;;6394542;22;20246;-48
2021/01/23 10:22:28;;;;;;;19.42;10.85;;;;;;;;;;6396234;22;20174;-54
2021/01/23 10:25:08;;;;;;;11.32;8.70;;;;;;;;;;6396851;22;20190;-52
2021/01/23 10:27:36;;;;;;;13.10;9.40;;;;;;;;;;6396046;22;20174;-50
2021/01/23 10:30:10;;;;;;;14.75;8.45;;;;;;;;;;6395933;22;20170;-55
2021/01/23 10:32:39;;;;;;;7.70;5.68;;;;;;;;;;6391154;22;20185;-56
2021/01/23 10:35:07;;;;;;;11.85;7.20;;;;;;;;;;6396309;22;20179;-56
2021/01/23 10:37:37;;;;;;;16.10;11.07;;;;;;;;;;6396464;22;20182;-53
2021/01/23 10:40:22;;;;;;;14.93;10.75;;;;;;;;;;6396590;22;20172;-51
2021/01/23 10:42:51;;;;;;;9.13;6.38;;;;;;;;;;6396059;22;20193;-55
2021/01/23 10:45:21;;;;;;;7.88;5.75;;;;;;;;;;6395532;22;20175;-51
2021/01/23 10:48:00;;;;;;;9.95;5.90;;;;;;;;;;6394772;22;20259;-53
2021/01/23 10:50:27;;;;;;;11.93;8.18;;;;;;;;;;6395061;22;20267;-48
2021/01/23 10:52:56;;;;;;;9.70;6.90;;;;;;;;;;6394885;22;20277;-48
2021/01/23 10:55:22;;;;;;;10.48;6.03;;;;;;;;;;6393879;22;20178;-54
2021/01/23 10:57:52;;;;;;;10.13;6.40;;;;;;;;;;6393374;22;20176;-52
2021/01/23 11:00:21;;;;;;;8.77;5.05;;;;;;;;;;6392391;22;20187;-55
2021/01/23 11:02:47;;;;;;;10.35;5.10;;;;;;;;;;6393988;22;20588;-55
2021/01/23 11:05:15;;;;;;;7.53;4.60;;;;;;;;;;6395357;22;20174;-53
2021/01/23 11:07:58;;;;;;;7.45;4.18;;;;;;;;;;6394004;22;20159;-55
2021/01/23 11:10:27;;;;;;;7.20;4.50;;;;;;;;;;6393788;22;20180;-48
2021/01/23 11:12:54;;;;;;;9.35;5.25;;;;;;;;;;6394223;22;20628;-52
2021/01/23 11:15:27;;;;;;;7.43;4.68;;;;;;;;;;6393473;22;20210;-47
2021/01/23 11:17:56;;;;;;;6.55;4.00;;;;;;;;;;6395054;22;20175;-53
2021/01/23 11:20:30;;;;;;;9.65;4.22;;;;;;;;;;6394233;22;20176;-53
2021/01/23 11:22:58;;;;;;;8.95;3.60;;;;;;;;;;6393981;22;20187;-56
2021/01/23 11:25:30;;;;;;;7.10;4.18;;;;;;;;;;6393844;22;20238;-50
2021/01/23 11:28:10;;;;;;;6.20;3.78;;;;;;;;;;6392621;22;20186;-53
2021/01/23 11:30:39;;;;;;;13.30;5.45;;;;;;;;;;6394717;22;20185;-53
2021/01/23 11:33:10;;;;;;;8.25;3.88;;;;;;;;;;6394609;22;20204;-55
2021/01/23 11:35:46;;;;;;;7.55;4.85;;;;;;;;;;6393093;22;20170;-50
2021/01/23 11:38:19;;;;;;;6.72;3.75;;;;;;;;;;6391992;22;20195;-56
2021/01/23 11:40:49;;;;;;;6.57;4.03;;;;;;;;;;6394794;22;20189;-50
2021/01/23 11:43:16;;;;;;;4.53;3.17;;;;;;;;;;6393270;22;20180;-54
2021/01/23 11:46:00;;;;;;;6.60;3.65;;;;;;;;;;6395357;22;20188;-56
2021/01/23 11:48:48;;;;;;;6.95;3.03;;;;;;;;;;6393406;22;20173;-50
2021/01/23 11:54:08;;;;;;;6.03;3.53;;;;;;;;;;6389147;22;20229;-54
2021/01/23 11:56:34;;;;;;;6.18;2.92;;;;;;;;;;6391684;22;20163;-53
2021/01/23 11:59:01;;;;;;;5.50;3.65;;;;;;;;;;6392697;22;20200;-55
2021/01/23 12:01:29;;;;;;;5.82;3.35;;;;;;;;;;6392458;22;20153;-46
2021/01/23 12:03:58;;;;;;;7.55;3.78;;;;;;;;;;6393163;22;20153;-58
2021/01/23 12:06:43;;;;;;;5.80;2.45;;;;;;;;;;6390908;22;20342;-58
2021/01/23 12:09:12;;;;;;;4.38;3.17;;;;;;;;;;6393362;22;20174;-51
2021/01/23 12:11:41;;;;;;;6.00;2.67;;;;;;;;;;6393195;22;20176;-58
2021/01/23 12:14:08;;;;;;;8.00;2.03;;;;;;;;;;6392124;22;20184;-49
2021/01/23 12:16:36;;;;;;;4.40;2.47;;;;;;;;;;6392368;22;20176;-55
2021/01/23 12:19:10;;;;;;;4.35;2.33;;;;;;;;;;6389560;22;20245;-48
2021/01/23 12:21:38;;;;;;;6.28;2.97;;;;;;;;;;6394664;22;20159;-45
2021/01/23 12:24:16;;;;;;;6.63;2.97;;;;;;;;;;6393940;22;20192;-51
2021/01/23 12:26:44;;;;;;;4.60;1.90;;;;;;;;;;6392869;22;20165;-56
2021/01/23 12:29:11;;;;;;;3.92;2.00;;;;;;;;;;6391117;22;20164;-52
2021/01/23 12:31:38;;;;;;;3.90;2.00;;;;;;;;;;6394171;22;20212;-51
2021/01/23 12:34:11;;;;;;;7.50;5.07;;;;;;;;;;6392088;22;20192;-56
2021/01/23 12:36:38;;;;;;;9.35;2.28;;;;;;;;;;6393017;22;20154;-57
2021/01/23 12:39:07;;;;;;;4.07;2.35;;;;;;;;;;6390484;22;20202;-53
2021/01/23 12:41:40;;;;;;;7.63;1.63;;;;;;;;;;6390481;22;20170;-52
2021/01/23 12:44:17;;;;;;;5.88;2.20;;;;;;;;;;6392180;22;20319;-56
2021/01/23 12:46:43;;;;;;;8.13;3.05;;;;;;;;;;6390440;22;20168;-54
2021/01/23 12:49:14;;;;;;;5.25;1.80;;;;;;;;;;6391952;22;20221;-50
2021/01/23 12:51:41;;;;;;;6.13;2.15;;;;;;;;;;6328137;22;20172;-55
2021/01/23 12:54:10;;;;;;;6.50;1.83;;;;;;;;;;6329902;22;20345;-54
2021/01/23 12:56:54;;;;;;;5.57;2.00;;;;;;;;;;6330345;22;20202;-53
2021/01/23 12:59:26;;;;;;;3.75;1.65;;;;;;;;;;6329410;22;20204;-50
2021/01/23 13:01:56;;;;;;;2.55;1.33;;;;;;;;;;6327531;22;20185;-59
2021/01/23 13:04:30;;;;;;;4.60;2.42;;;;;;;;;;6330142;22;20219;-57
2021/01/23 13:06:57;;;;;;;5.65;2.75;;;;;;;;;;6347625;22;20209;-58
2021/01/23 13:09:35;;;;;;;7.00;2.55;;;;;;;;;;6391277;22;20149;-50
2021/01/23 13:12:17;;;;;;;6.30;2.90;;;;;;;;;;6391883;22;20167;-54
2021/01/23 13:14:46;;;;;;;5.63;2.30;;;;;;;;;;6391797;22;20307;-53
2021/01/23 13:17:22;;;;;;;2.60;1.30;;;;;;;;;;6391854;22;20236;-56
2021/01/23 13:22:44;;;;;;;3.50;2.28;;;;;;;;;;6386526;22;20170;-53
2021/01/23 13:25:23;;;;;;;6.82;2.25;;;;;;;;;;6392309;22;20187;-52
2021/01/23 13:28:02;;;;;;;3.30;1.60;;;;;;;;;;6391687;22;20189;-47
2021/01/23 13:30:31;;;;;;;3.13;1.70;;;;;;;;;;6391343;22;20177;-57
2021/01/23 13:32:59;;;;;;;3.33;1.77;;;;;;;;;;6392802;22;20184;-49
2021/01/23 13:35:33;;;;;;;5.07;1.93;;;;;;;;;;6394610;22;20180;-54
2021/01/23 13:38:02;;;;;;;2.65;1.70;;;;;;;;;;6393350;22;20612;-56
2021/01/23 13:40:34;;;;;;;4.25;1.70;;;;;;;;;;6394138;22;20171;-56
2021/01/23 13:43:20;;;;;;;4.10;1.80;;;;;;;;;;6393493;22;20179;-51
2021/01/23 13:45:51;;;;;;;14.15;2.25;;;;;;;;;;6394487;22;20199;-54
2021/01/23 13:48:27;;;;;;;3.83;1.90;;;;;;;;;;6394573;22;20186;-56
2021/01/23 13:51:24;;;;;;;8.65;1.42;;;;;;;;;;6394250;22;20168;-53
2021/01/23 13:53:51;;;;;;;5.35;1.83;;;;;;;;;;6395516;22;20190;-55
2021/01/23 13:56:18;;;;;;;6.50;2.30;;;;;;;;;;6396325;22;20177;-57
2021/01/23 13:58:49;;;;;;;3.30;2.38;;;;;;;;;;6395140;22;20188;-55
2021/01/23 14:01:19;;;;;;;3.80;2.03;;;;;;;;;;6394135;22;20241;-50
2021/01/23 14:03:56;;;;;;;6.68;1.90;;;;;;;;;;6393884;22;20195;-55
2021/01/23 14:06:26;;;;;;;7.20;1.83;;;;;;;;;;6389086;22;20236;-55
2021/01/23 14:09:01;;;;;;;3.47;1.85;;;;;;;;;;6394706;22;20218;-49
2021/01/23 14:11:34;;;;;;;6.15;2.78;;;;;;;;;;6394593;22;20169;-51
2021/01/23 14:14:20;;;;;;;4.85;2.28;;;;;;;;;;6393591;22;20181;-49
2021/01/23 14:17:14;;;;;;;3.58;1.75;;;;;;;;;;6394286;22;20165;-57
2021/01/23 14:19:42;;;;;;;5.45;1.90;;;;;;;;;;6395687;22;20207;-53
2021/01/23 14:22:24;;;;;;;4.88;1.77;;;;;;;;;;6394982;22;20148;-53
2021/01/23 14:25:04;;;;;;;3.20;1.85;;;;;;;;;;6395837;22;20182;-56
2021/01/23 14:28:12;;;;;;;3.70;1.55;;;;;;;;;;6395719;22;20169;-55
2021/01/23 14:30:48;;;;;;;4.40;1.65;;;;;;;;;;6394196;22;20148;-51
2021/01/23 14:36:30;;;;;;;4.20;1.55;;;;;;;;;;6390085;22;20181;-55
2021/01/23 14:39:00;;;;;;;3.22;1.63;;;;;;;;;;6393913;22;20276;-53
2021/01/23 14:41:28;;;;;;;4.35;1.63;;;;;;;;;;6393290;22;20217;-46
2021/01/23 14:44:19;;;;;;;4.00;2.03;;;;;;;;;;6391528;22;20191;-55
2021/01/23 14:54:55;;;;;;;9.13;2.13;;;;;;;;;;6373650;22;20243;-52
2021/01/23 14:57:22;;;;;;;3.53;2.20;;;;;;;;;;6392557;22;20228;-55
2021/01/23 14:59:54;;;;;;;3.72;2.05;;;;;;;;;;6392883;22;20200;-49
2021/01/23 15:02:32;;;;;;;5.22;2.40;;;;;;;;;;6392130;22;20269;-52
2021/01/23 15:05:00;;;;;;;2.40;1.48;;;;;;;;;;6394262;22;20189;-47
2021/01/23 15:07:30;;;;;;;2.83;1.60;;;;;;;;;;6393380;22;20195;-50
2021/01/23 15:12:49;;;;;;;4.22;2.22;;;;;;;;;;6392174;22;20229;-53
2021/01/23 15:15:19;;;;;;;5.93;2.30;;;;;;;;;;6392925;22;20173;-52
2021/01/23 15:17:49;;;;;;;3.80;1.90;;;;;;;;;;6394304;22;20184;-51
2021/01/23 15:20:20;;;;;;;11.32;2.70;;;;;;;;;;6394599;22;20196;-53
2021/01/23 15:22:50;;;;;;;4.35;2.38;;;;;;;;;;6394073;22;20165;-56
2021/01/23 15:25:32;;;;;;;4.85;1.55;;;;;;;;;;6392986;22;20199;-57
2021/01/23 15:28:01;;;;;;;3.88;1.30;;;;;;;;;;6393266;22;20176;-56
2021/01/23 15:30:29;;;;;;;4.07;1.92;;;;;;;;;;6392245;22;20171;-51
2021/01/23 15:32:56;;;;;;;10.02;2.20;;;;;;;;;;6391675;22;20229;-57
2021/01/23 15:35:27;;;;;;;5.25;1.85;;;;;;;;;;6392087;22;20225;-49